| time (UTC) | temp F | wind direction | speed MPH | gust MPH | rain 1hr in | rain 24hr in | rain mn in | humidity % | barometer mb |
| 20260905130549 | 75 | 165 | 9.0 | 12.0 | 0.00 | 0.00 | 0.00 | 74 | 1014.7 |
| 20260905130105 | 75 | 160 | 8.0 | 12.0 | 0.00 | 0.00 | 0.00 | 75 | 1014.6 |
| 20260905125548 | 74 | 141 | 8.0 | 13.0 | 0.00 | 0.00 | 0.00 | 76 | 1014.5 |
| 20260905125049 | 74 | 141 | 9.0 | 13.0 | 0.00 | 0.00 | 0.00 | 76 | 1014.4 |
| 20260905124604 | 74 | 148 | 8.0 | 12.0 | 0.00 | 0.00 | 0.00 | 76 | 1014.4 |
| 20260905124048 | 74 | 146 | 9.0 | 12.0 | 0.00 | 0.00 | 0.00 | 76 | 1014.3 |
| 20260905123551 | 73 | 143 | 7.0 | 10.0 | 0.00 | 0.00 | 0.00 | 76 | 1014.3 |
| 20260905123106 | 73 | 161 | 6.0 | 9.0 | 0.00 | 0.00 | 0.00 | 76 | 1014.3 |
| 20260905122549 | 73 | 153 | 5.0 | 9.0 | 0.00 | 0.00 | 0.00 | 75 | 1014.3 |
| 20260905122051 | 74 | 153 | 6.0 | 9.0 | 0.00 | 0.00 | 0.00 | 75 | 1014.3 |
| 20260905121605 | 74 | 148 | 7.0 | 9.0 | 0.00 | 0.00 | 0.00 | 74 | 1014.3 |
| 20260905121047 | 74 | 143 | 7.0 | 11.0 | 0.00 | 0.00 | 0.00 | 74 | 1014.3 |
| 20260905120550 | 74 | 163 | 7.0 | 11.0 | 0.00 | 0.00 | 0.00 | 73 | 1014.3 |
| 20260905120112 | 74 | 151 | 9.0 | 12.0 | 0.00 | 0.00 | 0.00 | 72 | 1014.3 |
| 20260905115546 | 74 | 154 | 8.0 | 12.0 | 0.00 | 0.00 | 0.00 | 72 | 1014.3 |
| 20260905115051 | 74 | 162 | 9.0 | 12.0 | 0.00 | 0.00 | 0.00 | 72 | 1014.3 |
| 20260905114609 | 74 | 142 | 9.0 | 12.0 | 0.00 | 0.00 | 0.00 | 71 | 1014.4 |
| 20260905114049 | 74 | 153 | 9.0 | 12.0 | 0.00 | 0.00 | 0.00 | 71 | 1014.4 |
| 20260905113612 | 74 | 155 | 8.0 | 12.0 | 0.00 | 0.00 | 0.00 | 70 | 1014.3 |
| 20260905113103 | 75 | 147 | 8.0 | 10.0 | 0.00 | 0.00 | 0.00 | 70 | 1014.2 |
| 20260905112549 | 75 | 151 | 8.0 | 10.0 | 0.00 | 0.00 | 0.00 | 69 | 1014.2 |
| 20260905112049 | 75 | 136 | 6.0 | 8.0 | 0.00 | 0.00 | 0.00 | 68 | 1014.1 |
| 20260905111655 | 75 | 151 | 6.0 | 9.0 | 0.00 | 0.00 | 0.00 | 66 | 1014.0 |
| 20260905111049 | 76 | 135 | 7.0 | 9.0 | 0.00 | 0.00 | 0.00 | 66 | 1014.0 |
| 20260905110548 | 76 | 140 | 6.0 | 9.0 | 0.00 | 0.00 | 0.00 | 65 | 1014.1 |
| 20260905105549 | 76 | 144 | 7.0 | 10.0 | 0.00 | 0.00 | 0.00 | 64 | 1014.2 |
| 20260905105048 | 76 | 133 | 8.0 | 10.0 | 0.00 | 0.00 | 0.00 | 64 | 1014.1 |
| 20260905104609 | 76 | 134 | 7.0 | 10.0 | 0.00 | 0.00 | 0.00 | 63 | 1014.2 |
| 20260905104046 | 76 | 140 | 6.0 | 13.0 | 0.00 | 0.00 | 0.00 | 63 | 1014.0 |
| 20260905103621 | 76 | 141 | 9.0 | 13.0 | 0.00 | 0.00 | 0.00 | 63 | 1014.0 |
| 20260905103549 | 76 | 141 | 9.0 | 13.0 | 0.00 | 0.00 | 0.00 | 63 | 1014.0 |
| 20260905103109 | 76 | 142 | 9.0 | 12.0 | 0.00 | 0.00 | 0.00 | 63 | 1013.9 |
| 20260905102549 | 76 | 137 | 7.0 | 11.0 | 0.00 | 0.00 | 0.00 | 62 | 1013.8 |
| 20260905102045 | 76 | 129 | 9.0 | 11.0 | 0.00 | 0.00 | 0.00 | 62 | 1013.9 |
| 20260905101607 | 76 | 122 | 3.0 | 11.0 | 0.00 | 0.00 | 0.00 | 63 | 1014.0 |
| 20260905101049 | 76 | 184 | 5.0 | 11.0 | 0.00 | 0.00 | 0.00 | 63 | 1014.2 |
| 20260905100549 | 76 | 117 | 9.0 | 11.0 | 0.00 | 0.00 | 0.00 | 63 | 1014.2 |
| 20260905095549 | 75 | 155 | 3.0 | 4.0 | 0.00 | 0.00 | 0.00 | 68 | 1014.0 |
| 20260905095223 | 75 | 139 | 4.0 | 6.0 | 0.00 | 0.00 | 0.00 | 69 | 1014.1 |
| 20260905095122 | 75 | 139 | 4.0 | 6.0 | 0.00 | 0.00 | 0.00 | 69 | 1014.1 |
| 20260905095049 | 75 | 139 | 4.0 | 6.0 | 0.00 | 0.00 | 0.00 | 69 | 1014.1 |
| 20260905094625 | 75 | 135 | 3.0 | 9.0 | 0.00 | 0.00 | 0.00 | 69 | 1014.2 |
| 20260905094554 | 75 | 135 | 3.0 | 9.0 | 0.00 | 0.00 | 0.00 | 69 | 1014.2 |
| 20260905094048 | 75 | 119 | 5.0 | 9.0 | 0.00 | 0.00 | 0.00 | 70 | 1014.2 |
| 20260905093549 | 75 | 100 | 7.0 | 9.0 | 0.00 | 0.00 | 0.00 | 70 | 1014.2 |
| 20260905093122 | 75 | 117 | 4.0 | 6.0 | 0.00 | 0.00 | 0.00 | 70 | 1014.4 |
| 20260905092545 | 75 | 100 | 4.0 | 5.0 | 0.00 | 0.00 | 0.00 | 70 | 1014.7 |
| 20260905092049 | 75 | 117 | 2.0 | 3.0 | 0.00 | 0.00 | 0.00 | 70 | 1014.7 |
| 20260905091604 | 75 | 105 | 1.0 | 4.0 | 0.00 | 0.00 | 0.00 | 69 | 1014.7 |
| 20260905091049 | 76 | 0 | 1.0 | 4.0 | 0.00 | 0.00 | 0.00 | 69 | 1014.8 |
| 20260905090549 | 76 | 121 | 3.0 | 4.0 | 0.00 | 0.00 | 0.00 | 69 | 1014.7 |
| 20260905090100 | 76 | 106 | 2.0 | 4.0 | 0.00 | 0.00 | 0.00 | 69 | 1014.5 |
| 20260905085549 | 76 | 136 | 2.0 | 6.0 | 0.00 | 0.00 | 0.00 | 69 | 1014.7 |
| 20260905085045 | 76 | 150 | 4.0 | 6.0 | 0.00 | 0.00 | 0.00 | 70 | 1014.9 |
| 20260905084603 | 76 | 140 | 0.0 | 1.0 | 0.00 | 0.00 | 0.00 | 70 | 1015.1 |
| 20260905084046 | 76 | 0 | 0.0 | 1.0 | 0.00 | 0.00 | 0.00 | 70 | 1015.0 |
| 20260905083550 | 76 | 0 | 0.0 | 2.0 | 0.00 | 0.00 | 0.00 | 69 | 1015.0 |
| 20260905083103 | 76 | 0 | 0.0 | 4.0 | 0.00 | 0.00 | 0.00 | 69 | 1014.9 |
| 20260905082548 | 76 | 0 | 0.0 | 8.0 | 0.00 | 0.00 | 0.00 | 70 | 1014.9 |
| 20260905082049 | 76 | 219 | 4.0 | 11.0 | 0.00 | 0.00 | 0.00 | 70 | 1014.7 |
| 20260905081601 | 76 | 174 | 6.0 | 14.0 | 0.00 | 0.00 | 0.00 | 71 | 1014.7 |
| 20260905081049 | 76 | 178 | 8.0 | 15.0 | 0.00 | 0.00 | 0.00 | 71 | 1014.7 |
| 20260905080546 | 76 | 189 | 9.0 | 17.0 | 0.00 | 0.00 | 0.00 | 71 | 1014.7 |
| 20260905080104 | 76 | 188 | 10.0 | 17.0 | 0.00 | 0.00 | 0.00 | 71 | 1014.7 |
| 20260905075549 | 76 | 181 | 11.0 | 17.0 | 0.00 | 0.00 | 0.00 | 70 | 1014.7 |
| 20260905075049 | 76 | 204 | 11.0 | 17.0 | 0.00 | 0.00 | 0.00 | 70 | 1014.7 |
| 20260905074609 | 77 | 203 | 10.0 | 16.0 | 0.00 | 0.00 | 0.00 | 70 | 1014.8 |
| 20260905074049 | 77 | 193 | 11.0 | 19.0 | 0.00 | 0.00 | 0.00 | 69 | 1015.0 |
| 20260905073551 | 77 | 217 | 12.0 | 19.0 | 0.00 | 0.00 | 0.00 | 69 | 1015.3 |
| 20260905073104 | 77 | 225 | 12.0 | 20.0 | 0.00 | 0.00 | 0.00 | 68 | 1015.3 |
| 20260905072549 | 77 | 217 | 13.0 | 20.0 | 0.00 | 0.00 | 0.00 | 67 | 1015.4 |
| 20260905072048 | 77 | 225 | 11.0 | 16.0 | 0.00 | 0.00 | 0.00 | 65 | 1015.5 |
| 20260905071555 | 78 | 231 | 11.0 | 18.0 | 0.00 | 0.00 | 0.00 | 63 | 1015.5 |
| 20260905071049 | 78 | 214 | 10.0 | 18.0 | 0.00 | 0.00 | 0.00 | 61 | 1015.8 |
| 20260905070548 | 79 | 230 | 12.0 | 18.0 | 0.00 | 0.00 | 0.00 | 59 | 1016.0 |
| 20260905070107 | 79 | 240 | 12.0 | 19.0 | 0.00 | 0.00 | 0.00 | 58 | 1016.2 |
| 20260905065548 | 80 | 236 | 12.0 | 19.0 | 0.00 | 0.00 | 0.00 | 56 | 1016.3 |
| 20260905065048 | 81 | 248 | 13.0 | 19.0 | 0.00 | 0.00 | 0.00 | 55 | 1016.2 |
| 20260905064631 | 81 | 248 | 13.0 | 19.0 | 0.00 | 0.00 | 0.00 | 55 | 1016.1 |
| 20260905064048 | 80 | 205 | 5.0 | 10.0 | 0.00 | 0.00 | 0.00 | 57 | 1016.1 |
| 20260905063549 | 81 | 196 | 5.0 | 11.0 | 0.00 | 0.00 | 0.00 | 58 | 1016.0 |
| 20260905063102 | 80 | 210 | 5.0 | 11.0 | 0.00 | 0.00 | 0.00 | 58 | 1016.0 |
| 20260905062548 | 80 | 225 | 4.0 | 9.0 | 0.00 | 0.00 | 0.00 | 62 | 1016.1 |
| 20260905062047 | 80 | 226 | 6.0 | 9.0 | 0.00 | 0.00 | 0.00 | 62 | 1016.3 |
| 20260905061604 | 80 | 247 | 2.0 | 5.0 | 0.00 | 0.00 | 0.00 | 63 | 1016.2 |
| 20260905061048 | 80 | 0 | 0.0 | 0.0 | 0.00 | 0.00 | 0.00 | 63 | 1016.1 |
| 20260905060545 | 81 | 0 | 0.0 | 11.0 | 0.00 | 0.00 | 0.00 | 62 | 1015.9 |
| 20260905060106 | 81 | 0 | 0.0 | 11.0 | 0.00 | 0.00 | 0.00 | 62 | 1015.5 |
| 20260905055545 | 81 | 68 | 7.0 | 12.0 | 0.00 | 0.00 | 0.00 | 61 | 1015.2 |
| 20260905055049 | 80 | 137 | 4.0 | 12.0 | 0.00 | 0.00 | 0.00 | 62 | 1015.1 |
| 20260905054603 | 79 | 116 | 8.0 | 21.0 | 0.00 | 0.00 | 0.00 | 65 | 1014.8 |
| 20260905054053 | 78 | 347 | 10.0 | 21.0 | 0.00 | 0.00 | 0.00 | 69 | 1014.6 |
| 20260905053549 | 75 | 143 | 3.0 | 9.0 | 0.00 | 0.00 | 0.00 | 75 | 1014.6 |
| 20260905053105 | 74 | 138 | 3.0 | 7.0 | 0.00 | 0.00 | 0.00 | 76 | 1014.8 |
| 20260905052548 | 74 | 35 | 2.0 | 7.0 | 0.00 | 0.00 | 0.00 | 76 | 1014.5 |
| 20260905052049 | 75 | 13 | 3.0 | 11.0 | 0.00 | 0.00 | 0.00 | 75 | 1014.5 |
| 20260905051604 | 75 | 78 | 2.0 | 16.0 | 0.00 | 0.00 | 0.00 | 76 | 1014.4 |
| 20260905051048 | 75 | 246 | 9.0 | 16.0 | 0.00 | 0.00 | 0.00 | 76 | 1013.9 |
| 20260905050546 | 75 | 255 | 12.0 | 16.0 | 0.00 | 0.00 | 0.00 | 75 | 1013.7 |
| 20260905045546 | 76 | 252 | 12.0 | 19.0 | 0.00 | 0.00 | 0.00 | 73 | 1013.5 |
| 20260905045045 | 76 | 219 | 11.0 | 23.0 | 0.00 | 0.00 | 0.00 | 73 | 1013.4 |
| 20260905044606 | 76 | 228 | 14.0 | 25.0 | 0.00 | 0.00 | 0.00 | 72 | 1013.2 |
| 20260905044050 | 76 | 224 | 16.0 | 27.0 | 0.00 | 0.00 | 0.00 | 71 | 1013.4 |
| 20260905043549 | 76 | 214 | 19.0 | 27.0 | 0.00 | 0.00 | 0.00 | 70 | 1013.3 |
| 20260905043105 | 76 | 226 | 18.0 | 26.0 | 0.00 | 0.00 | 0.00 | 70 | 1013.2 |
| 20260905042548 | 76 | 191 | 18.0 | 26.0 | 0.00 | 0.00 | 0.00 | 71 | 1013.2 |
| 20260905042049 | 77 | 201 | 19.0 | 28.0 | 0.00 | 0.00 | 0.00 | 70 | 1013.1 |
| 20260905041607 | 78 | 194 | 20.0 | 28.0 | 0.00 | 0.00 | 0.00 | 68 | 1013.2 |
| 20260905041048 | 78 | 194 | 19.0 | 26.0 | 0.00 | 0.00 | 0.00 | 69 | 1013.1 |
| 20260905040545 | 78 | 189 | 16.0 | 23.0 | 0.00 | 0.00 | 0.00 | 68 | 1013.6 |
| 20260905040105 | 78 | 186 | 16.0 | 20.0 | 0.00 | 0.00 | 0.00 | 68 | 1014.3 |
| 20260905035548 | 78 | 174 | 14.0 | 19.0 | 0.00 | 0.00 | 0.00 | 67 | 1014.5 |
| 20260905035051 | 78 | 183 | 12.0 | 17.0 | 0.00 | 0.00 | 0.00 | 68 | 1014.9 |
| 20260905034608 | 78 | 194 | 12.0 | 18.0 | 0.00 | 0.00 | 0.00 | 67 | 1015.3 |
| 20260905034052 | 78 | 184 | 12.0 | 18.0 | 0.00 | 0.00 | 0.00 | 67 | 1015.6 |
| 20260905033548 | 78 | 212 | 12.0 | 17.0 | 0.00 | 0.00 | 0.00 | 67 | 1015.6 |
| 20260905033114 | 79 | 211 | 11.0 | 16.0 | 0.00 | 0.00 | 0.00 | 66 | 1015.6 |
| 20260905032549 | 79 | 209 | 11.0 | 15.0 | 0.00 | 0.00 | 0.00 | 64 | 1015.6 |
| 20260905032047 | 80 | 200 | 8.0 | 14.0 | 0.00 | 0.00 | 0.00 | 62 | 1015.4 |
| 20260905031617 | 80 | 238 | 8.0 | 14.0 | 0.00 | 0.00 | 0.00 | 60 | 1015.7 |
| 20260905031048 | 81 | 241 | 8.0 | 14.0 | 0.00 | 0.00 | 0.00 | 58 | 1015.8 |
| 20260905030549 | 82 | 235 | 9.0 | 17.0 | 0.00 | 0.00 | 0.00 | 57 | 1015.8 |
| 20260905030119 | 82 | 226 | 10.0 | 17.0 | 0.00 | 0.00 | 0.00 | 55 | 1015.7 |
| 20260905025549 | 83 | 248 | 10.0 | 15.0 | 0.00 | 0.00 | 0.00 | 55 | 1015.4 |
| 20260905025051 | 83 | 234 | 11.0 | 16.0 | 0.00 | 0.00 | 0.00 | 53 | 1015.3 |
| 20260905024607 | 84 | 217 | 11.0 | 16.0 | 0.00 | 0.00 | 0.00 | 52 | 1015.4 |
| 20260905024045 | 84 | 224 | 10.0 | 14.0 | 0.00 | 0.00 | 0.00 | 51 | 1015.4 |
| 20260905023551 | 84 | 222 | 10.0 | 13.0 | 0.00 | 0.00 | 0.00 | 51 | 1015.4 |
| 20260905023105 | 84 | 223 | 7.0 | 13.0 | 0.00 | 0.00 | 0.00 | 51 | 1015.3 |
| 20260905022548 | 84 | 224 | 8.0 | 13.0 | 0.00 | 0.00 | 0.00 | 51 | 1015.2 |
| 20260905022049 | 84 | 222 | 7.0 | 11.0 | 0.00 | 0.00 | 0.00 | 51 | 1015.2 |
| 20260905021611 | 84 | 223 | 5.0 | 9.0 | 0.00 | 0.00 | 0.00 | 51 | 1015.0 |
| 20260905021049 | 85 | 224 | 4.0 | 9.0 | 0.00 | 0.00 | 0.00 | 50 | 1014.9 |
| 20260905020549 | 85 | 245 | 5.0 | 11.0 | 0.00 | 0.00 | 0.00 | 49 | 1014.8 |
| 20260905020104 | 86 | 261 | 7.0 | 12.0 | 0.00 | 0.00 | 0.00 | 48 | 1014.7 |
| 20260905015546 | 86 | 237 | 6.0 | 14.0 | 0.00 | 0.00 | 0.00 | 47 | 1014.6 |
| 20260905015052 | 88 | 267 | 9.0 | 22.0 | 0.00 | 0.00 | 0.00 | 45 | 1014.4 |
| 20260905014559 | 89 | 227 | 10.0 | 24.0 | 0.00 | 0.00 | 0.00 | 44 | 1014.2 |
| 20260905014046 | 88 | 229 | 15.0 | 24.0 | 0.00 | 0.00 | 0.00 | 45 | 1013.8 |
| 20260905013551 | 88 | 271 | 13.0 | 24.0 | 0.00 | 0.00 | 0.00 | 46 | 1013.6 |
| 20260905013101 | 90 | 203 | 5.0 | 9.0 | 0.00 | 0.00 | 0.00 | 41 | 1013.8 |
| 20260905012552 | 90 | 135 | 6.0 | 9.0 | 0.00 | 0.00 | 0.00 | 41 | 1013.2 |
| 20260905012049 | 91 | 129 | 6.0 | 11.0 | 0.00 | 0.00 | 0.00 | 40 | 1013.1 |
| 20260905011557 | 91 | 130 | 7.0 | 11.0 | 0.00 | 0.00 | 0.00 | 40 | 1013.1 |
| 20260905011046 | 91 | 133 | 7.0 | 10.0 | 0.00 | 0.00 | 0.00 | 39 | 1013.0 |
| 20260905010550 | 92 | 132 | 7.0 | 11.0 | 0.00 | 0.00 | 0.00 | 39 | 1013.0 |
| 20260905010106 | 92 | 134 | 8.0 | 11.0 | 0.00 | 0.00 | 0.00 | 39 | 1013.1 |
| 20260905005550 | 92 | 120 | 7.0 | 10.0 | 0.00 | 0.00 | 0.00 | 39 | 1013.0 |
| 20260905005051 | 92 | 131 | 7.0 | 13.0 | 0.00 | 0.00 | 0.00 | 39 | 1013.0 |
| 20260905004608 | 92 | 127 | 7.0 | 13.0 | 0.00 | 0.00 | 0.00 | 38 | 1012.7 |
| 20260905004049 | 92 | 122 | 7.0 | 11.0 | 0.00 | 0.00 | 0.00 | 38 | 1012.3 |
| 20260905003549 | 93 | 116 | 6.0 | 12.0 | 0.00 | 0.00 | 0.00 | 38 | 1012.1 |
| 20260905003102 | 93 | 121 | 8.0 | 14.0 | 0.00 | 0.00 | 0.00 | 37 | 1012.1 |
| 20260905002546 | 94 | 121 | 9.0 | 14.0 | 0.00 | 0.00 | 0.00 | 37 | 1012.2 |
| 20260905002050 | 94 | 108 | 10.0 | 15.0 | 0.00 | 0.00 | 0.00 | 37 | 1012.3 |
| 20260905001607 | 94 | 127 | 11.0 | 15.0 | 0.00 | 0.00 | 0.00 | 36 | 1012.4 |
| 20260905001049 | 95 | 121 | 10.0 | 15.0 | 0.00 | 0.00 | 0.00 | 36 | 1012.5 |
| 20260905000549 | 95 | 126 | 9.0 | 15.0 | 0.00 | 0.00 | 0.00 | 36 | 1012.3 |
| 20260905000106 | 95 | 127 | 10.0 | 15.0 | 0.00 | 0.00 | 0.00 | 36 | 1012.2 |
| 20260904235545 | 95 | 138 | 11.0 | 15.0 | 0.00 | 0.00 | 0.00 | 36 | 1012.2 |
| 20260904235051 | 95 | 126 | 11.0 | 17.0 | 0.00 | 0.00 | 0.00 | 35 | 1012.2 |
| 20260904234608 | 96 | 129 | 11.0 | 17.0 | 0.00 | 0.00 | 0.00 | 35 | 1012.2 |
| 20260904234049 | 96 | 134 | 13.0 | 17.0 | 0.00 | 0.00 | 0.00 | 35 | 1012.3 |
| 20260904233549 | 96 | 110 | 12.0 | 17.0 | 0.00 | 0.00 | 0.00 | 35 | 1012.2 |
| 20260904233104 | 96 | 131 | 12.0 | 17.0 | 0.00 | 0.00 | 0.00 | 35 | 1012.2 |
| 20260904232547 | 96 | 136 | 11.0 | 18.0 | 0.00 | 0.00 | 0.00 | 35 | 1012.2 |
| 20260904232054 | 96 | 125 | 13.0 | 18.0 | 0.00 | 0.00 | 0.00 | 35 | 1012.2 |
| 20260904231603 | 96 | 135 | 12.0 | 18.0 | 0.00 | 0.00 | 0.00 | 35 | 1012.1 |
| 20260904231050 | 97 | 150 | 12.0 | 18.0 | 0.00 | 0.00 | 0.00 | 34 | 1012.2 |
| 20260904230548 | 97 | 139 | 11.0 | 18.0 | 0.00 | 0.00 | 0.00 | 34 | 1012.2 |
| 20260904230058 | 98 | 137 | 14.0 | 23.0 | 0.00 | 0.00 | 0.00 | 33 | 1012.2 |
| 20260904225550 | 99 | 172 | 16.0 | 23.0 | 0.00 | 0.00 | 0.00 | 32 | 1012.2 |
| 20260904225045 | 100 | 144 | 15.0 | 22.0 | 0.00 | 0.00 | 0.00 | 31 | 1012.2 |
| 20260904224604 | 100 | 127 | 13.0 | 22.0 | 0.00 | 0.00 | 0.00 | 31 | 1012.2 |
| 20260904224049 | 100 | 131 | 15.0 | 22.0 | 0.00 | 0.00 | 0.00 | 30 | 1012.1 |
| 20260904223549 | 101 | 167 | 14.0 | 24.0 | 0.00 | 0.00 | 0.00 | 30 | 1012.1 |
| 20260904223102 | 100 | 136 | 16.0 | 24.0 | 0.00 | 0.00 | 0.00 | 32 | 1012.1 |
| 20260904222549 | 100 | 143 | 14.0 | 21.0 | 0.00 | 0.00 | 0.00 | 32 | 1012.0 |
| 20260904222046 | 100 | 155 | 15.0 | 22.0 | 0.00 | 0.00 | 0.00 | 32 | 1012.0 |
| 20260904221602 | 100 | 158 | 15.0 | 22.0 | 0.00 | 0.00 | 0.00 | 32 | 1012.0 |
| 20260904221049 | 100 | 150 | 16.0 | 27.0 | 0.00 | 0.00 | 0.00 | 30 | 1012.0 |
| 20260904220549 | 101 | 142 | 14.0 | 27.0 | 0.00 | 0.00 | 0.00 | 30 | 1012.0 |
| 20260904220112 | 101 | 162 | 16.0 | 22.0 | 0.00 | 0.00 | 0.00 | 31 | 1012.0 |
| 20260904215548 | 101 | 141 | 16.0 | 23.0 | 0.00 | 0.00 | 0.00 | 30 | 1012.1 |
| 20260904215053 | 101 | 191 | 14.0 | 23.0 | 0.00 | 0.00 | 0.00 | 30 | 1012.1 |
| 20260904214603 | 101 | 148 | 13.0 | 21.0 | 0.00 | 0.00 | 0.00 | 30 | 1012.2 |
| 20260904214049 | 101 | 147 | 14.0 | 23.0 | 0.00 | 0.00 | 0.00 | 31 | 1012.1 |
| 20260904213549 | 100 | 114 | 17.0 | 23.0 | 0.00 | 0.00 | 0.00 | 32 | 1012.1 |
| 20260904213104 | 100 | 113 | 16.0 | 23.0 | 0.00 | 0.00 | 0.00 | 31 | 1012.2 |
| 20260904212547 | 101 | 146 | 14.0 | 23.0 | 0.00 | 0.00 | 0.00 | 31 | 1012.1 |
| 20260904212045 | 101 | 142 | 14.0 | 21.0 | 0.00 | 0.00 | 0.00 | 30 | 1012.2 |
| 20260904211609 | 101 | 118 | 15.0 | 22.0 | 0.00 | 0.00 | 0.00 | 32 | 1012.2 |
| 20260904211049 | 100 | 136 | 16.0 | 23.0 | 0.00 | 0.00 | 0.00 | 32 | 1012.2 |
| 20260904210549 | 100 | 122 | 17.0 | 23.0 | 0.00 | 0.00 | 0.00 | 32 | 1012.2 |
| 20260904210114 | 100 | 158 | 14.0 | 23.0 | 0.00 | 0.00 | 0.00 | 31 | 1012.2 |
| 20260904205549 | 100 | 160 | 15.0 | 23.0 | 0.00 | 0.00 | 0.00 | 31 | 1012.3 |
| 20260904205048 | 100 | 125 | 17.0 | 23.0 | 0.00 | 0.00 | 0.00 | 31 | 1012.3 |
| 20260904204605 | 100 | 140 | 15.0 | 22.0 | 0.00 | 0.00 | 0.00 | 31 | 1012.4 |
| 20260904204049 | 99 | 125 | 15.0 | 22.0 | 0.00 | 0.00 | 0.00 | 33 | 1012.4 |
| 20260904203546 | 100 | 153 | 17.0 | 21.0 | 0.00 | 0.00 | 0.00 | 32 | 1012.5 |
| 20260904203105 | 99 | 136 | 15.0 | 23.0 | 0.00 | 0.00 | 0.00 | 34 | 1012.7 |
| 20260904202549 | 99 | 141 | 16.0 | 25.0 | 0.00 | 0.00 | 0.00 | 34 | 1012.8 |
| 20260904202049 | 99 | 131 | 18.0 | 25.0 | 0.00 | 0.00 | 0.00 | 33 | 1012.8 |
| 20260904201606 | 99 | 173 | 11.0 | 21.0 | 0.00 | 0.00 | 0.00 | 35 | 1012.9 |
| 20260904201049 | 99 | 139 | 15.0 | 23.0 | 0.00 | 0.00 | 0.00 | 32 | 1013.0 |
| 20260904200551 | 99 | 150 | 16.0 | 23.0 | 0.00 | 0.00 | 0.00 | 33 | 1013.0 |
| 20260904200127 | 99 | 154 | 11.0 | 21.0 | 0.00 | 0.00 | 0.00 | 35 | 1013.0 |
| 20260904195549 | 99 | 158 | 13.0 | 21.0 | 0.00 | 0.00 | 0.00 | 35 | 1013.1 |
| 20260904195052 | 99 | 148 | 14.0 | 21.0 | 0.00 | 0.00 | 0.00 | 37 | 1013.2 |
| 20260904194634 | 98 | 156 | 13.0 | 20.0 | 0.00 | 0.00 | 0.00 | 38 | 1013.3 |
| 20260904194046 | 98 | 141 | 13.0 | 19.0 | 0.00 | 0.00 | 0.00 | 37 | 1013.3 |
| 20260904193546 | 98 | 163 | 13.0 | 23.0 | 0.00 | 0.00 | 0.00 | 38 | 1013.4 |
| 20260904193105 | 98 | 140 | 14.0 | 23.0 | 0.00 | 0.00 | 0.00 | 37 | 1013.4 |
| 20260904192549 | 98 | 165 | 15.0 | 21.0 | 0.00 | 0.00 | 0.00 | 37 | 1013.2 |
| 20260904192052 | 97 | 134 | 14.0 | 22.0 | 0.00 | 0.00 | 0.00 | 38 | 1013.3 |
| 20260904191624 | 97 | 137 | 13.0 | 22.0 | 0.00 | 0.00 | 0.00 | 40 | 1013.3 |
| 20260904191049 | 97 | 124 | 11.0 | 22.0 | 0.00 | 0.00 | 0.00 | 40 | 1013.4 |
| 20260904190548 | 97 | 141 | 12.0 | 21.0 | 0.00 | 0.00 | 0.00 | 40 | 1013.4 |
| 20260904185552 | 96 | 145 | 15.0 | 21.0 | 0.00 | 0.00 | 0.00 | 42 | 1013.6 |
| 20260904185046 | 96 | 141 | 15.0 | 20.0 | 0.00 | 0.00 | 0.00 | 42 | 1013.8 |
| 20260904184614 | 96 | 130 | 14.0 | 20.0 | 0.00 | 0.00 | 0.00 | 43 | 1013.8 |
| 20260904184049 | 96 | 160 | 14.0 | 20.0 | 0.00 | 0.00 | 0.00 | 42 | 1013.8 |
| 20260904183549 | 96 | 149 | 12.0 | 21.0 | 0.00 | 0.00 | 0.00 | 43 | 1013.8 |
| 20260904183111 | 95 | 136 | 15.0 | 21.0 | 0.00 | 0.00 | 0.00 | 44 | 1013.8 |
| 20260904182551 | 95 | 154 | 13.0 | 20.0 | 0.00 | 0.00 | 0.00 | 45 | 1013.8 |
| 20260904182048 | 95 | 138 | 14.0 | 20.0 | 0.00 | 0.00 | 0.00 | 46 | 1014.0 |
| 20260904181603 | 95 | 130 | 13.0 | 22.0 | 0.00 | 0.00 | 0.00 | 46 | 1014.0 |
| 20260904181049 | 94 | 146 | 13.0 | 22.0 | 0.00 | 0.00 | 0.00 | 46 | 1014.0 |
| 20260904180549 | 94 | 118 | 12.0 | 20.0 | 0.00 | 0.00 | 0.00 | 47 | 1014.0 |
| 20260904180059 | 94 | 155 | 12.0 | 19.0 | 0.00 | 0.00 | 0.00 | 47 | 1014.0 |
| 20260904175549 | 94 | 179 | 12.0 | 21.0 | 0.00 | 0.00 | 0.00 | 48 | 1014.2 |
| 20260904175049 | 94 | 151 | 10.0 | 21.0 | 0.00 | 0.00 | 0.00 | 48 | 1014.2 |
| 20260904174605 | 93 | 143 | 11.0 | 18.0 | 0.00 | 0.00 | 0.00 | 49 | 1014.3 |
| 20260904174049 | 93 | 123 | 12.0 | 18.0 | 0.00 | 0.00 | 0.00 | 48 | 1014.4 |
| 20260904173549 | 92 | 174 | 13.0 | 19.0 | 0.00 | 0.00 | 0.00 | 50 | 1014.4 |
| 20260904173111 | 92 | 148 | 11.0 | 19.0 | 0.00 | 0.00 | 0.00 | 51 | 1014.3 |
| 20260904172550 | 92 | 143 | 12.0 | 19.0 | 0.00 | 0.00 | 0.00 | 51 | 1014.3 |
| 20260904172049 | 92 | 151 | 12.0 | 19.0 | 0.00 | 0.00 | 0.00 | 51 | 1014.4 |
| 20260904171556 | 92 | 150 | 10.0 | 19.0 | 0.00 | 0.00 | 0.00 | 51 | 1014.4 |
| 20260904171048 | 91 | 142 | 11.0 | 17.0 | 0.00 | 0.00 | 0.00 | 52 | 1014.4 |
| 20260904170548 | 91 | 151 | 11.0 | 16.0 | 0.00 | 0.00 | 0.00 | 53 | 1014.4 |
| 20260904170106 | 91 | 147 | 12.0 | 21.0 | 0.00 | 0.00 | 0.00 | 53 | 1014.3 |
| 20260904165549 | 90 | 173 | 10.0 | 21.0 | 0.00 | 0.00 | 0.00 | 54 | 1014.3 |
| 20260904165050 | 90 | 189 | 11.0 | 21.0 | 0.00 | 0.00 | 0.00 | 54 | 1014.4 |
| 20260904164605 | 90 | 158 | 12.0 | 18.0 | 0.00 | 0.00 | 0.00 | 55 | 1014.4 |
| 20260904164052 | 89 | 148 | 10.0 | 16.0 | 0.00 | 0.00 | 0.00 | 56 | 1014.6 |
| 20260904163549 | 88 | 132 | 10.0 | 16.0 | 0.00 | 0.00 | 0.00 | 58 | 1014.5 |
| 20260904163100 | 88 | 165 | 11.0 | 18.0 | 0.00 | 0.00 | 0.00 | 58 | 1014.4 |
| 20260904162549 | 88 | 137 | 11.0 | 18.0 | 0.00 | 0.00 | 0.00 | 59 | 1014.4 |
| 20260904162047 | 87 | 196 | 11.0 | 18.0 | 0.00 | 0.00 | 0.00 | 59 | 1014.4 |
| 20260904161557 | 87 | 148 | 11.0 | 18.0 | 0.00 | 0.00 | 0.00 | 60 | 1014.6 |
| 20260904161047 | 87 | 140 | 11.0 | 18.0 | 0.00 | 0.00 | 0.00 | 60 | 1014.6 |
| 20260904160552 | 87 | 169 | 12.0 | 18.0 | 0.00 | 0.00 | 0.00 | 61 | 1014.7 |
| 20260904160106 | 87 | 157 | 12.0 | 19.0 | 0.00 | 0.00 | 0.00 | 61 | 1014.7 |
| 20260904155550 | 86 | 164 | 11.0 | 19.0 | 0.00 | 0.00 | 0.00 | 61 | 1014.5 |
| 20260904155054 | 86 | 199 | 13.0 | 19.0 | 0.00 | 0.00 | 0.00 | 62 | 1014.6 |
| 20260904154620 | 86 | 150 | 13.0 | 19.0 | 0.00 | 0.00 | 0.00 | 63 | 1014.6 |
| 20260904154049 | 85 | 168 | 13.0 | 18.0 | 0.00 | 0.00 | 0.00 | 63 | 1014.6 |
| 20260904153549 | 85 | 163 | 13.0 | 18.0 | 0.00 | 0.00 | 0.00 | 64 | 1014.6 |
| 20260904153102 | 85 | 162 | 13.0 | 17.0 | 0.00 | 0.00 | 0.00 | 65 | 1014.6 |
| 20260904152546 | 85 | 186 | 12.0 | 19.0 | 0.00 | 0.00 | 0.00 | 65 | 1014.7 |
| 20260904152045 | 84 | 176 | 12.0 | 19.0 | 0.00 | 0.00 | 0.00 | 67 | 1014.7 |
| 20260904151607 | 83 | 190 | 13.0 | 18.0 | 0.00 | 0.00 | 0.00 | 68 | 1014.5 |
| 20260904151046 | 83 | 141 | 13.0 | 18.0 | 0.00 | 0.00 | 0.00 | 69 | 1014.5 |
| 20260904150552 | 83 | 169 | 12.0 | 18.0 | 0.00 | 0.00 | 0.00 | 69 | 1014.4 |
| 20260904150103 | 82 | 149 | 14.0 | 18.0 | 0.00 | 0.00 | 0.00 | 70 | 1014.5 |
| 20260904145550 | 82 | 155 | 13.0 | 18.0 | 0.00 | 0.00 | 0.00 | 71 | 1014.5 |
| 20260904145047 | 82 | 169 | 12.0 | 18.0 | 0.00 | 0.00 | 0.00 | 72 | 1014.5 |
| 20260904144604 | 81 | 131 | 14.0 | 18.0 | 0.00 | 0.00 | 0.00 | 74 | 1014.5 |
| 20260904144047 | 81 | 205 | 14.0 | 18.0 | 0.00 | 0.00 | 0.00 | 74 | 1014.6 |
| 20260904143552 | 81 | 198 | 13.0 | 20.0 | 0.00 | 0.00 | 0.00 | 74 | 1014.6 |
| 20260904143059 | 80 | 164 | 12.0 | 20.0 | 0.00 | 0.00 | 0.00 | 75 | 1014.5 |
| 20260904142546 | 80 | 159 | 14.0 | 20.0 | 0.00 | 0.00 | 0.00 | 76 | 1014.5 |
| 20260904142045 | 80 | 177 | 15.0 | 20.0 | 0.00 | 0.00 | 0.00 | 76 | 1014.6 |
| 20260904141618 | 79 | 146 | 13.0 | 19.0 | 0.00 | 0.00 | 0.00 | 77 | 1014.4 |
| 20260904141046 | 79 | 177 | 14.0 | 20.0 | 0.00 | 0.00 | 0.00 | 78 | 1014.5 |
| 20260904140549 | 78 | 152 | 14.0 | 20.0 | 0.00 | 0.00 | 0.00 | 78 | 1014.4 |
| 20260904140110 | 78 | 176 | 15.0 | 21.0 | 0.00 | 0.00 | 0.00 | 79 | 1014.4 |
| 20260904135547 | 78 | 142 | 15.0 | 21.0 | 0.00 | 0.00 | 0.00 | 79 | 1014.4 |
| 20260904135050 | 78 | 155 | 14.0 | 19.0 | 0.00 | 0.00 | 0.00 | 80 | 1014.5 |
| 20260904134621 | 77 | 156 | 11.0 | 18.0 | 0.00 | 0.00 | 0.00 | 81 | 1014.4 |
| 20260904134046 | 76 | 154 | 12.0 | 18.0 | 0.00 | 0.00 | 0.00 | 81 | 1014.5 |
| 20260904133547 | 76 | 167 | 12.0 | 18.0 | 0.00 | 0.00 | 0.00 | 82 | 1014.4 |
| 20260904133111 | 76 | 162 | 11.0 | 16.0 | 0.00 | 0.00 | 0.00 | 83 | 1014.3 |
| 20260904132549 | 75 | 178 | 11.0 | 16.0 | 0.00 | 0.00 | 0.00 | 83 | 1014.3 |
| 20260904132046 | 75 | 154 | 12.0 | 15.0 | 0.00 | 0.00 | 0.00 | 83 | 1014.3 |
| 20260904131615 | 75 | 146 | 12.0 | 15.0 | 0.00 | 0.00 | 0.00 | 84 | 1014.2 |
| 20260904131047 | 74 | 147 | 11.0 | 15.0 | 0.00 | 0.00 | 0.00 | 84 | 1014.2 |